Time;durP1;ratioP1;P1;durP2;ratioP2;P2;SDS_P1;SDS_P2;PMS_P1;PMS_P2;Temp;Humidity;BMP_temperature;BMP_pressure;BME280_temperature;BME280_humidity;BME280_pressure;Samples;Min_cycle;Max_cycle;Signal;HPM_P1;HPM_P2
2022/06/08 00:00:45;;;;;;;7.25;5.18;;;15.90;91.90;;;;;;2086784;28;20452;-96
2022/06/08 00:02:06;;;;;;;7.32;5.18;;;15.90;91.90;;;;;;2093186;28;20026;-96
2022/06/08 00:03:36;;;;;;;6.43;4.70;;;15.90;92.00;;;;;;2090073;28;20030;-96
2022/06/08 00:04:56;;;;;;;7.40;4.97;;;15.90;92.00;;;;;;2082971;28;20093;-96
2022/06/08 00:06:16;;;;;;;7.70;5.07;;;15.90;92.00;;;;;;2076107;28;20022;-95
2022/06/08 00:07:36;;;;;;;7.78;5.45;;;15.80;92.10;;;;;;2082104;28;20261;-96
2022/06/08 00:08:55;;;;;;;7.07;5.32;;;15.80;92.10;;;;;;2085090;28;20033;-96
2022/06/08 00:10:15;;;;;;;8.05;5.65;;;15.80;92.10;;;;;;2088313;28;20021;-95
2022/06/08 00:11:34;;;;;;;6.90;5.18;;;15.80;92.10;;;;;;2088227;28;20018;-95
2022/06/08 00:12:53;;;;;;;7.60;5.72;;;15.80;92.20;;;;;;2088282;28;20033;-89
2022/06/08 00:14:14;;;;;;;6.82;5.35;;;15.80;92.20;;;;;;2096807;28;20017;-96
2022/06/08 00:15:34;;;;;;;;;;;15.80;92.20;;;;;;2086227;28;20026;-96
2022/06/08 00:16:53;;;;;;;6.85;4.93;;;15.80;92.20;;;;;;2090701;28;19945;-96
2022/06/08 00:18:13;;;;;;;6.45;5.07;;;15.80;92.20;;;;;;2096894;28;20028;-96
2022/06/08 00:19:32;;;;;;;7.40;5.22;;;15.70;92.20;;;;;;2090348;28;20052;-95
2022/06/08 00:20:51;;;;;;;7.70;5.10;;;15.70;92.20;;;;;;2087104;28;20093;-96
2022/06/08 00:22:11;;;;;;;6.93;4.78;;;15.70;92.20;;;;;;2086954;28;20488;-96
2022/06/08 00:23:31;;;;;;;6.85;4.80;;;15.70;92.30;;;;;;2087234;28;20037;-96
2022/06/08 00:24:50;;;;;;;6.60;4.95;;;15.60;92.30;;;;;;2091110;28;20037;-96
2022/06/08 00:26:10;;;;;;;7.55;4.95;;;15.60;92.30;;;;;;2083078;28;20037;-95
2022/06/08 00:27:30;;;;;;;7.13;5.40;;;15.60;92.40;;;;;;2088069;28;20060;-88
2022/06/08 00:28:49;;;;;;;6.95;5.22;;;15.50;92.40;;;;;;2092228;28;20026;-78
2022/06/08 00:30:08;;;;;;;6.70;5.15;;;15.50;92.50;;;;;;2141376;22;20111;-95
2022/06/08 00:31:27;;;;;;;7.13;5.28;;;15.50;92.50;;;;;;2088956;28;20037;-96
2022/06/08 00:32:46;;;;;;;6.53;5.05;;;15.40;92.50;;;;;;2100828;28;20028;-95
2022/06/08 00:34:06;;;;;;;6.78;5.20;;;15.40;92.60;;;;;;2079182;28;20037;-96
2022/06/08 00:35:25;;;;;;;6.60;4.90;;;15.40;92.60;;;;;;2092882;28;20029;-95
2022/06/08 00:36:44;;;;;;;7.35;5.32;;;15.40;92.60;;;;;;2084353;28;20176;-95
2022/06/08 00:38:03;;;;;;;6.82;5.25;;;15.40;92.60;;;;;;2083903;28;20024;-96
2022/06/08 00:39:22;;;;;;;7.40;5.30;;;15.40;92.70;;;;;;2084050;28;20041;-95
2022/06/08 00:40:48;;;;;;;7.47;5.53;;;15.40;92.70;;;;;;2084442;28;20033;-95
2022/06/08 00:42:10;;;;;;;7.38;5.38;;;15.40;92.70;;;;;;2098522;28;20426;-95
2022/06/08 00:43:30;;;;;;;8.13;5.80;;;15.40;92.70;;;;;;2104148;28;20032;-95
2022/06/08 00:44:54;;;;;;;7.85;5.75;;;15.40;92.70;;;;;;2090581;28;20479;-96
2022/06/08 00:46:14;;;;;;;7.85;5.72;;;15.40;92.70;;;;;;2100911;28;20025;-94
2022/06/08 00:47:40;;;;;;;7.93;6.07;;;15.40;92.70;;;;;;2087160;28;20045;-96
2022/06/08 00:49:04;;;;;;;8.10;6.18;;;15.40;92.70;;;;;;2103420;28;20289;-96
2022/06/08 00:50:40;;;;;;;9.02;6.05;;;15.40;92.70;;;;;;2109448;28;20020;-95
2022/06/08 00:52:02;;;;;;;7.55;5.78;;;15.40;92.70;;;;;;2106816;28;20385;-96
2022/06/08 00:53:44;;;;;;;8.13;5.93;;;15.40;92.70;;;;;;2110188;28;20024;-96
2022/06/08 00:55:08;;;;;;;8.38;5.70;;;15.40;92.70;;;;;;2098188;28;20111;-96
2022/06/08 00:56:34;;;;;;;8.27;6.00;;;15.50;92.70;;;;;;2090430;28;20044;-96
2022/06/08 00:57:58;;;;;;;8.38;6.00;;;15.50;92.70;;;;;;2096467;28;20060;-95
2022/06/08 00:59:17;;;;;;;8.50;6.18;;;15.50;92.70;;;;;;2091261;28;20028;-95
2022/06/08 01:00:38;;;;;;;8.43;5.93;;;15.60;93.00;;;;;;2093873;28;20025;-96
2022/06/08 01:01:57;;;;;;;;;;;15.60;92.70;;;;;;2091503;28;20033;-96
2022/06/08 01:03:17;;;;;;;7.45;5.22;;;15.60;92.60;;;;;;2095292;28;20325;-96
2022/06/08 01:04:36;;;;;;;8.13;5.95;;;15.60;92.70;;;;;;2086550;28;20415;-94
2022/06/08 01:06:03;;;;;;;7.53;5.47;;;15.60;92.70;;;;;;2080861;28;20510;-94
2022/06/08 01:07:22;;;;;;;7.50;5.35;;;15.60;92.70;;;;;;2093831;28;20024;-94
2022/06/08 01:08:47;;;;;;;7.88;5.60;;;15.60;92.70;;;;;;2088379;28;20515;-94
2022/06/08 01:10:09;;;;;;;7.80;5.95;;;15.60;93.10;;;;;;2101813;28;20024;-94
2022/06/08 01:11:43;;;;;;;7.70;5.68;;;15.60;92.80;;;;;;2095839;28;20028;-95
2022/06/08 01:13:04;;;;;;;7.25;5.45;;;15.70;92.80;;;;;;2099049;28;20028;-94
2022/06/08 01:14:23;;;;;;;;;;;15.70;92.80;;;;;;2092222;28;20033;-95
2022/06/08 01:15:43;;;;;;;7.40;5.28;;;15.70;92.70;;;;;;2098927;28;20373;-94
2022/06/08 01:17:09;;;;;;;9.18;6.13;;;15.80;92.70;;;;;;2091948;28;20447;-95
2022/06/08 01:18:29;;;;;;;8.43;6.07;;;15.70;92.70;;;;;;2098191;28;20021;-95
2022/06/08 01:19:49;;;;;;;7.93;5.97;;;15.80;92.80;;;;;;2099510;28;20033;-95
2022/06/08 01:21:20;;;;;;;7.90;5.60;;;15.80;92.80;;;;;;2097364;28;20104;-95
2022/06/08 01:22:40;;;;;;;8.45;5.63;;;15.80;92.80;;;;;;2116506;28;20277;-94
2022/06/08 01:24:01;;;;;;;8.52;6.45;;;15.80;92.80;;;;;;2108149;28;20032;-96
2022/06/08 01:25:21;;;;;;;7.72;5.93;;;15.80;92.80;;;;;;2105155;28;20036;-95
2022/06/08 01:26:45;;;;;;;7.88;6.20;;;15.90;92.90;;;;;;2092139;28;20037;-94
2022/06/08 01:28:35;;;;;;;9.32;5.93;;;15.80;93.10;;;;;;2097823;28;20024;-95
2022/06/08 01:30:12;;;;;;;7.68;5.55;;;15.90;92.90;;;;;;2098086;28;20514;-95
2022/06/08 01:31:55;;;;;;;8.25;5.50;;;15.90;92.90;;;;;;2099904;28;20028;-94
2022/06/08 01:33:48;;;;;;;8.80;6.10;;;15.90;92.80;;;;;;2091718;28;20053;-95
2022/06/08 01:35:45;;;;;;;7.38;5.22;;;15.90;92.80;;;;;;2106345;28;20028;-95
2022/06/08 01:37:36;;;;;;;6.88;5.15;;;15.90;92.80;;;;;;2100482;28;20032;-94
2022/06/08 01:39:06;;;;;;;6.88;5.07;;;15.90;93.10;;;;;;2069875;28;20044;-95
2022/06/08 01:40:43;;;;;;;8.82;5.50;;;15.90;92.80;;;;;;2098512;28;20028;-95
2022/06/08 01:42:20;;;;;;;7.65;5.28;;;15.90;92.90;;;;;;2109399;28;20482;-94
2022/06/08 01:44:24;;;;;;;8.27;5.35;;;15.90;92.90;;;;;;2100429;28;20116;-95
2022/06/08 01:46:04;;;;;;;7.55;5.03;;;15.90;92.90;;;;;;2071732;28;20027;-94
2022/06/08 01:47:35;;;;;;;6.68;4.88;;;15.90;92.90;;;;;;2091661;28;20017;-94
2022/06/08 01:49:10;;;;;;;8.65;4.82;;;15.90;92.90;;;;;;2090164;28;20033;-95
2022/06/08 01:50:35;;;;;;;8.23;5.15;;;15.90;92.80;;;;;;2097632;28;20533;-96
2022/06/08 01:52:30;;;;;;;6.13;4.57;;;15.90;92.90;;;;;;2097642;28;20028;-95
2022/06/08 01:54:04;;;;;;;7.00;4.72;;;15.90;92.90;;;;;;2089381;28;20034;-95
2022/06/08 01:55:55;;;;;;;7.53;5.15;;;15.90;92.90;;;;;;2097587;28;20410;-95
2022/06/08 01:57:29;;;;;;;6.85;4.63;;;15.90;93.00;;;;;;2083768;28;20037;-95
2022/06/08 01:59:09;;;;;;;7.28;4.93;;;15.90;93.00;;;;;;2105576;28;20040;-95
2022/06/08 02:00:43;;;;;;;7.55;4.93;;;15.90;93.10;;;;;;2093693;28;20033;-94
2022/06/08 02:02:41;;;;;;;8.02;4.95;;;15.90;93.10;;;;;;2106205;28;20028;-95
2022/06/08 02:04:26;;;;;;;7.35;5.00;;;15.90;93.10;;;;;;2102198;28;20025;-95
2022/06/08 02:06:10;;;;;;;6.38;4.72;;;15.90;93.10;;;;;;2100261;28;20032;-95
2022/06/08 02:08:17;;;;;;;6.78;4.60;;;15.90;93.10;;;;;;2100546;28;20028;-95
2022/06/08 02:10:02;;;;;;;6.50;4.63;;;15.90;93.10;;;;;;2096271;28;20036;-95
2022/06/08 02:11:46;;;;;;;6.25;4.72;;;15.90;93.10;;;;;;2107212;28;20028;-96
2022/06/08 02:13:35;;;;;;;7.22;4.88;;;15.90;93.10;;;;;;2108697;28;20455;-94
2022/06/08 02:15:01;;;;;;;6.80;4.90;;;15.90;93.10;;;;;;2104467;28;20031;-94
2022/06/08 02:16:36;;;;;;;7.35;5.43;;;15.90;93.20;;;;;;2091340;28;20037;-94
2022/06/08 02:17:59;;;;;;;6.82;5.05;;;15.90;93.20;;;;;;2090466;28;20037;-95
2022/06/08 02:19:32;;;;;;;7.75;5.68;;;15.90;93.20;;;;;;2101707;28;20016;-96
2022/06/08 02:21:09;;;;;;;7.65;5.57;;;15.90;93.20;;;;;;2098415;28;20036;-95
2022/06/08 02:22:47;;;;;;;7.95;5.47;;;16.00;93.20;;;;;;2098060;28;20024;-95
2022/06/08 02:24:15;;;;;;;8.23;5.38;;;16.00;93.20;;;;;;2097619;28;20025;-96
2022/06/08 02:27:59;;;;;;;8.50;5.85;;;16.00;93.20;;;;;;2101865;28;20029;-94
2022/06/08 02:29:56;;;;;;;6.68;5.15;;;16.00;93.20;;;;;;2079698;28;20471;-95
2022/06/08 02:31:54;;;;;;;9.30;5.57;;;16.00;93.10;;;;;;2110097;28;20040;-95
2022/06/08 02:35:56;;;;;;;5.75;4.00;;;15.90;93.10;;;;;;2111258;28;20278;-96
2022/06/08 02:37:26;;;;;;;6.60;4.60;;;15.80;93.10;;;;;;2105927;28;20036;-95
2022/06/08 02:39:18;;;;;;;7.20;5.25;;;15.80;93.50;;;;;;2108339;28;20040;-95
2022/06/08 02:40:57;;;;;;;8.30;5.70;;;15.80;93.30;;;;;;2117173;28;20031;-95
2022/06/08 02:42:36;;;;;;;7.82;5.45;;;15.70;93.30;;;;;;2103246;28;20025;-95
2022/06/08 02:44:30;;;;;;;9.05;5.65;;;15.70;93.40;;;;;;2095869;28;20108;-96
2022/06/08 02:46:10;;;;;;;8.55;5.07;;;15.70;93.40;;;;;;2091328;28;20495;-96
2022/06/08 02:47:37;;;;;;;8.60;6.00;;;15.60;93.40;;;;;;2083217;28;20037;-96
2022/06/08 02:49:04;;;;;;;8.63;5.88;;;15.60;93.50;;;;;;2082920;28;20057;-95
2022/06/08 02:50:36;;;;;;;9.23;6.30;;;15.60;93.50;;;;;;2091411;28;20029;-95
2022/06/08 02:52:05;;;;;;;9.18;6.13;;;15.60;93.60;;;;;;2093083;28;20416;-96
2022/06/08 02:54:05;;;;;;;8.35;6.43;;;15.60;93.60;;;;;;2098461;28;20103;-96
2022/06/08 02:55:56;;;;;;;8.90;6.65;;;15.60;93.70;;;;;;2092323;28;20044;-96
2022/06/08 02:57:50;;;;;;;8.45;6.10;;;15.50;93.60;;;;;;2116919;28;20043;-95
2022/06/08 02:59:31;;;;;;;7.78;5.65;;;15.50;93.70;;;;;;2108422;28;20024;-95
2022/06/08 03:00:58;;;;;;;8.98;6.10;;;15.50;93.70;;;;;;2114452;28;20043;-95
2022/06/08 03:02:39;;;;;;;8.77;6.45;;;15.40;93.70;;;;;;2099713;28;20100;-95
2022/06/08 03:04:09;;;;;;;8.80;6.35;;;15.40;93.80;;;;;;2114957;28;20039;-95
2022/06/08 03:05:53;;;;;;;9.63;6.88;;;15.40;93.80;;;;;;2099512;28;20029;-96
2022/06/08 03:07:39;;;;;;;8.90;6.47;;;15.40;93.80;;;;;;2098816;28;20028;-96
2022/06/08 03:09:10;;;;;;;9.90;6.47;;;15.40;93.90;;;;;;2099370;28;20032;-96
2022/06/08 03:10:41;;;;;;;9.63;6.97;;;15.30;93.90;;;;;;2091142;28;20511;-95
2022/06/08 03:12:06;;;;;;;10.23;7.15;;;15.30;93.90;;;;;;2097756;28;20082;-95
2022/06/08 03:13:59;;;;;;;9.95;6.63;;;15.30;93.90;;;;;;2087904;28;20021;-95
2022/06/08 03:15:36;;;;;;;8.70;6.32;;;15.30;93.90;;;;;;2108446;28;20473;-95
2022/06/08 03:17:14;;;;;;;9.93;7.25;;;15.30;94.00;;;;;;2091171;28;20032;-95
2022/06/08 03:18:35;;;;;;;9.80;7.07;;;15.20;94.00;;;;;;2107800;28;20452;-95
2022/06/08 03:19:54;;;;;;;;;;;15.20;94.00;;;;;;2093663;28;20411;-95
2022/06/08 03:21:14;;;;;;;9.02;6.60;;;15.20;94.00;;;;;;2101260;28;19912;-95
2022/06/08 03:22:33;;;;;;;8.75;6.63;;;15.20;94.00;;;;;;2089666;28;20427;-95
2022/06/08 03:23:54;;;;;;;10.98;7.55;;;15.20;94.00;;;;;;2084620;28;20045;-95
2022/06/08 03:25:14;;;;;;;;;;;15.20;94.10;;;;;;2085337;28;20037;-95
2022/06/08 03:26:43;;;;;;;9.75;6.75;;;15.10;94.00;;;;;;2092063;28;20275;-95
2022/06/08 03:28:03;;;;;;;9.23;6.55;;;15.20;94.30;;;;;;2099998;28;20028;-96
2022/06/08 03:29:24;;;;;;;9.05;6.80;;;15.10;94.00;;;;;;2097730;28;20036;-96
2022/06/08 03:30:44;;;;;;;10.25;7.32;;;15.20;94.10;;;;;;2096236;28;20037;-93
2022/06/08 03:32:04;;;;;;;9.82;7.18;;;15.10;94.10;;;;;;2087940;28;20036;-94
2022/06/08 03:33:24;;;;;;;10.90;7.88;;;15.10;94.10;;;;;;2079936;28;20033;-93
2022/06/08 03:34:46;;;;;;;11.18;8.30;;;15.10;94.10;;;;;;2085609;28;20065;-93
2022/06/08 03:36:06;;;;;;;11.30;8.05;;;15.10;94.20;;;;;;2080008;28;20048;-96
2022/06/08 03:37:31;;;;;;;10.77;7.95;;;15.10;94.20;;;;;;2100292;28;20036;-96
2022/06/08 03:39:08;;;;;;;10.55;7.97;;;15.20;94.20;;;;;;2105332;28;20040;-96
2022/06/08 03:40:27;;;;;;;10.38;7.78;;;15.20;94.20;;;;;;2099339;28;20037;-93
2022/06/08 03:41:47;;;;;;;10.98;7.95;;;15.20;94.20;;;;;;2079522;28;20053;-93
2022/06/08 03:43:22;;;;;;;12.35;8.60;;;15.20;94.20;;;;;;2092240;28;20021;-94
2022/06/08 03:44:46;;;;;;;10.57;7.95;;;15.20;94.20;;;;;;2096212;28;20437;-96
2022/06/08 03:46:23;;;;;;;10.77;7.82;;;15.30;94.20;;;;;;2090861;28;20029;-95
2022/06/08 03:48:10;;;;;;;10.82;8.18;;;15.30;94.10;;;;;;2081833;28;20037;-95
2022/06/08 03:50:28;;;;;;;9.63;7.35;;;15.30;94.10;;;;;;2098459;28;20044;-95
2022/06/08 03:51:54;;;;;;;9.88;7.30;;;15.40;94.10;;;;;;2103789;28;20432;-95
2022/06/08 03:53:31;;;;;;;10.52;7.78;;;15.40;94.00;;;;;;2103770;28;20024;-93
2022/06/08 03:54:55;;;;;;;10.75;7.78;;;15.40;94.00;;;;;;2099450;28;20021;-94
2022/06/08 03:56:16;;;;;;;10.18;7.88;;;15.40;94.00;;;;;;2092130;28;20024;-93
2022/06/08 03:57:37;;;;;;;11.00;8.32;;;15.40;94.00;;;;;;2090912;28;20036;-93
2022/06/08 03:58:57;;;;;;;11.77;8.25;;;15.40;94.00;;;;;;2096868;28;20107;-94
2022/06/08 04:00:18;;;;;;;12.23;8.13;;;15.50;94.00;;;;;;2078857;28;20034;-94
2022/06/08 04:01:38;;;;;;;12.73;8.63;;;15.50;94.00;;;;;;2089974;28;20025;-95
2022/06/08 04:02:57;;;;;;;10.02;8.27;;;15.50;94.00;;;;;;2088254;28;20033;-94
2022/06/08 04:04:17;;;;;;;10.75;8.13;;;15.50;94.00;;;;;;2095423;28;20502;-95
2022/06/08 04:05:38;;;;;;;11.93;8.23;;;15.60;94.00;;;;;;2087559;28;20410;-95
2022/06/08 04:06:57;;;;;;;11.73;8.45;;;15.60;94.00;;;;;;2092856;28;20478;-94
2022/06/08 04:08:16;;;;;;;11.27;8.27;;;15.60;94.00;;;;;;2084505;28;20064;-94
2022/06/08 04:09:37;;;;;;;12.00;8.82;;;15.60;94.00;;;;;;2092293;28;20025;-93
2022/06/08 04:10:56;;;;;;;12.13;8.05;;;15.70;94.00;;;;;;2095057;28;20068;-95
2022/06/08 04:12:40;;;;;;;11.05;8.40;;;15.70;94.00;;;;;;2082367;28;20029;-93
2022/06/08 04:14:18;;;;;;;10.82;7.97;;;15.70;93.90;;;;;;2097309;28;20036;-94
2022/06/08 04:15:43;;;;;;;12.32;8.43;;;15.70;93.90;;;;;;2079962;28;20041;-94
2022/06/08 04:17:19;;;;;;;10.65;8.10;;;15.70;93.90;;;;;;2089029;28;20032;-94
2022/06/08 04:19:04;;;;;;;10.48;8.07;;;15.70;93.80;;;;;;2107231;28;20044;-94
2022/06/08 04:20:49;;;;;;;10.40;7.45;;;15.70;93.80;;;;;;2107200;28;20498;-94
2022/06/08 04:22:16;;;;;;;10.35;7.78;;;15.70;93.80;;;;;;2082125;28;20060;-94
2022/06/08 04:23:55;;;;;;;10.05;7.60;;;15.70;93.80;;;;;;2087464;28;20025;-94
2022/06/08 04:25:18;;;;;;;10.32;7.50;;;15.70;93.80;;;;;;2102056;28;20063;-94
2022/06/08 04:26:54;;;;;;;11.02;7.75;;;15.70;93.90;;;;;;2090608;28;20029;-95
2022/06/08 04:28:17;;;;;;;10.32;7.97;;;15.70;93.90;;;;;;2098429;28;20112;-96
2022/06/08 04:29:57;;;;;;;9.57;7.15;;;15.70;93.90;;;;;;2097304;28;20119;-95
2022/06/08 04:31:20;;;;;;;;;;;15.70;93.90;;;;;;2091444;28;20036;-95
2022/06/08 04:32:45;;;;;;;8.35;6.22;;;15.60;93.90;;;;;;2086777;28;19960;-95
2022/06/08 04:34:25;;;;;;;9.93;7.10;;;15.60;93.90;;;;;;2095362;28;20020;-95
2022/06/08 04:35:56;;;;;;;9.95;7.10;;;15.70;93.90;;;;;;2082091;28;20116;-95
2022/06/08 04:37:51;;;;;;;8.98;6.85;;;15.70;93.90;;;;;;2103040;28;20039;-92
2022/06/08 04:39:13;;;;;;;9.18;6.53;;;15.70;93.80;;;;;;2098790;28;20036;-93
2022/06/08 04:40:35;;;;;;;9.50;7.03;;;15.70;93.80;;;;;;2086627;28;20037;-92
2022/06/08 04:42:09;;;;;;;12.15;8.35;;;15.70;93.80;;;;;;2088471;28;20040;-92
2022/06/08 04:43:30;;;;;;;10.43;7.45;;;15.80;93.90;;;;;;2082754;28;20440;-94
2022/06/08 04:44:49;;;;;;;9.73;7.13;;;15.80;93.90;;;;;;2091788;28;20488;-94
2022/06/08 04:46:15;;;;;;;9.93;7.78;;;15.80;93.80;;;;;;2083126;28;20033;-93
2022/06/08 04:47:34;;;;;;;10.02;7.57;;;15.80;93.80;;;;;;2103159;28;20032;-95
2022/06/08 04:48:55;;;;;;;9.48;7.45;;;15.80;93.80;;;;;;2099450;28;20104;-92
2022/06/08 04:50:16;;;;;;;;;;;15.80;93.80;;;;;;2079633;28;20041;-94
2022/06/08 04:51:57;;;;;;;9.77;6.80;;;15.80;93.70;;;;;;2110457;28;19908;-95
2022/06/08 04:53:32;;;;;;;10.50;7.28;;;15.90;93.70;;;;;;2089673;28;20021;-95
2022/06/08 04:55:20;;;;;;;8.85;6.93;;;15.90;93.60;;;;;;2090418;28;20088;-94
2022/06/08 04:57:17;;;;;;;9.15;6.68;;;16.00;93.60;;;;;;2086272;28;20309;-96
2022/06/08 04:58:56;;;;;;;9.02;6.88;;;16.00;93.50;;;;;;2097696;28;20409;-94
2022/06/08 05:00:18;;;;;;;9.43;7.03;;;16.10;93.40;;;;;;2081316;28;20033;-94
2022/06/08 05:01:38;;;;;;;9.75;7.68;;;16.20;93.40;;;;;;2091736;28;20017;-92
2022/06/08 05:02:59;;;;;;;10.32;7.80;;;16.30;93.40;;;;;;2076803;28;20037;-93
2022/06/08 05:04:19;;;;;;;10.98;7.38;;;16.30;93.60;;;;;;2089461;28;20390;-93
2022/06/08 05:05:40;;;;;;;10.98;8.20;;;16.30;93.30;;;;;;2090999;28;20037;-94
2022/06/08 05:06:59;;;;;;;9.55;7.90;;;16.40;93.30;;;;;;2070130;28;20504;-93
2022/06/08 05:08:20;;;;;;;10.05;7.95;;;16.40;93.30;;;;;;2079553;28;20100;-93
2022/06/08 05:09:39;;;;;;;9.32;7.38;;;16.40;93.30;;;;;;2078974;28;20037;-93
2022/06/08 05:10:58;;;;;;;10.70;8.07;;;16.50;93.30;;;;;;2078973;28;20430;-94
2022/06/08 05:13:59;;;;;;;9.75;7.35;;;16.50;93.30;;;;;;2089533;28;20048;-93
2022/06/08 05:15:22;;;;;;;10.07;7.25;;;16.50;93.30;;;;;;2081411;28;20046;-92
2022/06/08 05:16:41;;;;;;;8.82;6.75;;;16.50;93.50;;;;;;2090476;28;20048;-94
2022/06/08 05:18:02;;;;;;;8.32;7.03;;;16.50;93.20;;;;;;2102515;28;20032;-93
2022/06/08 05:19:23;;;;;;;;;;;16.60;93.30;;;;;;2092434;28;20033;-93
2022/06/08 05:20:46;;;;;;;7.60;5.97;;;16.70;93.20;;;;;;2093636;28;19986;-92
2022/06/08 05:22:05;;;;;;;7.68;6.07;;;16.80;93.10;;;;;;2089344;28;20522;-92
2022/06/08 05:23:28;;;;;;;8.43;6.60;;;16.90;93.00;;;;;;2080270;28;20037;-92
2022/06/08 05:24:49;;;;;;;8.40;6.63;;;16.90;92.90;;;;;;2095045;28;20079;-93
2022/06/08 05:26:12;;;;;;;8.02;6.13;;;17.00;92.80;;;;;;2082736;28;20030;-93
2022/06/08 05:27:31;;;;;;;7.50;6.18;;;17.00;92.70;;;;;;2074545;28;20518;-91
2022/06/08 05:28:53;;;;;;;8.27;6.35;;;17.10;92.70;;;;;;2096625;28;20036;-92
2022/06/08 05:30:13;;;;;;;8.30;6.15;;;17.10;92.70;;;;;;2082109;28;20512;-91
2022/06/08 05:31:33;;;;;;;8.15;6.22;;;17.10;92.70;;;;;;2084526;28;20410;-92
2022/06/08 05:32:54;;;;;;;8.02;5.93;;;17.20;92.70;;;;;;2095549;28;20103;-92
2022/06/08 05:34:14;;;;;;;9.73;6.57;;;17.20;92.70;;;;;;2089009;28;20028;-92
2022/06/08 05:35:34;;;;;;;7.78;6.07;;;17.20;92.70;;;;;;2076505;28;20794;-90
2022/06/08 05:36:54;;;;;;;9.45;6.90;;;17.20;92.70;;;;;;2083479;28;20045;-92
2022/06/08 05:38:13;;;;;;;6.97;5.80;;;17.30;92.70;;;;;;2087650;28;20037;-91
2022/06/08 05:39:32;;;;;;;7.80;6.40;;;17.20;92.60;;;;;;2078620;28;20037;-90
2022/06/08 05:40:51;;;;;;;7.78;5.93;;;17.20;92.70;;;;;;2075231;28;20112;-90
2022/06/08 05:42:11;;;;;;;8.00;6.00;;;17.20;92.70;;;;;;2073232;28;20504;-90
2022/06/08 05:43:30;;;;;;;7.60;6.20;;;17.20;92.70;;;;;;2070283;28;20025;-90
2022/06/08 05:44:49;;;;;;;8.70;6.05;;;17.20;92.70;;;;;;2080184;28;20041;-90
2022/06/08 05:46:08;;;;;;;7.93;5.82;;;17.20;92.70;;;;;;2091181;28;20025;-91
2022/06/08 05:47:27;;;;;;;8.10;6.18;;;17.20;92.70;;;;;;2087549;28;20041;-91
2022/06/08 05:48:47;;;;;;;7.28;5.90;;;17.20;92.80;;;;;;2082108;28;20038;-92
2022/06/08 05:50:07;;;;;;;8.25;6.00;;;17.20;92.80;;;;;;2084333;28;20065;-91
2022/06/08 05:51:27;;;;;;;8.05;6.28;;;17.20;93.10;;;;;;2087040;28;20037;-91
2022/06/08 05:52:47;;;;;;;7.35;5.82;;;17.20;92.80;;;;;;2085538;28;20038;-91
2022/06/08 05:54:06;;;;;;;8.52;6.40;;;17.20;92.90;;;;;;2084645;28;20108;-92
2022/06/08 05:55:26;;;;;;;7.53;5.75;;;17.20;92.80;;;;;;2085914;28;20037;-91
2022/06/08 05:56:45;;;;;;;8.60;6.57;;;17.20;92.80;;;;;;2094504;28;20498;-91
2022/06/08 05:58:06;;;;;;;7.38;5.40;;;17.20;92.80;;;;;;2091050;28;20092;-91
2022/06/08 05:59:26;;;;;;;7.15;5.57;;;17.20;92.90;;;;;;2097765;28;20025;-92
2022/06/08 06:00:46;;;;;;;7.60;6.05;;;17.30;92.90;;;;;;2084124;28;20033;-91
2022/06/08 06:02:07;;;;;;;8.10;5.90;;;17.30;93.10;;;;;;2087148;28;20096;-90
2022/06/08 06:03:26;;;;;;;7.30;5.60;;;17.30;92.80;;;;;;2093414;28;20064;-91
2022/06/08 06:04:46;;;;;;;7.88;5.80;;;17.30;93.10;;;;;;2080194;28;20033;-91
2022/06/08 06:06:05;;;;;;;7.25;5.55;;;17.30;92.80;;;;;;2084013;28;20511;-91
2022/06/08 06:07:26;;;;;;;7.50;5.65;;;17.30;92.80;;;;;;2089981;28;20029;-91
2022/06/08 06:08:45;;;;;;;7.03;5.20;;;17.40;92.80;;;;;;2088854;28;20045;-91
2022/06/08 06:10:07;;;;;;;6.68;5.05;;;17.40;92.80;;;;;;2082262;28;20056;-92
2022/06/08 06:11:26;;;;;;;7.72;5.90;;;17.50;92.70;;;;;;2086276;28;20037;-92
2022/06/08 06:12:54;;;;;;;7.18;5.25;;;17.50;92.70;;;;;;2095680;28;20029;-92
2022/06/08 06:14:13;;;;;;;6.18;4.93;;;17.60;92.60;;;;;;2094302;28;20036;-91
2022/06/08 06:15:33;;;;;;;7.43;5.40;;;17.50;92.50;;;;;;2086909;28;20033;-92
2022/06/08 06:16:53;;;;;;;7.05;5.28;;;17.60;92.50;;;;;;2084943;28;20139;-91
2022/06/08 06:18:15;;;;;;;6.57;4.88;;;17.60;92.40;;;;;;2079524;28;20028;-92
2022/06/08 06:19:34;;;;;;;6.53;4.45;;;17.60;92.40;;;;;;2099278;28;20040;-91
2022/06/08 06:20:54;;;;;;;6.22;4.80;;;17.60;92.40;;;;;;2096315;28;20021;-92
2022/06/08 06:22:14;;;;;;;7.38;5.55;;;17.60;92.40;;;;;;2104654;28;20059;-92
2022/06/08 06:23:34;;;;;;;7.30;5.32;;;17.60;92.40;;;;;;2086095;28;20511;-92
2022/06/08 06:24:53;;;;;;;7.05;5.25;;;17.60;92.40;;;;;;2083722;28;20033;-92
2022/06/08 06:26:12;;;;;;;7.45;5.85;;;17.60;92.50;;;;;;2088146;28;20060;-92
2022/06/08 06:27:32;;;;;;;7.68;6.22;;;17.60;92.50;;;;;;2083190;28;20049;-92
2022/06/08 06:28:52;;;;;;;7.78;6.03;;;17.60;92.50;;;;;;2093354;28;20115;-92
2022/06/08 06:30:12;;;;;;;8.32;6.55;;;17.60;92.50;;;;;;2087340;28;20052;-92
2022/06/08 06:31:38;;;;;;;;;;;17.70;92.60;;;;;;2072399;28;20029;-91
2022/06/08 06:32:57;;;;;;;7.18;5.55;;;17.70;92.50;;;;;;2087537;28;19913;-92
2022/06/08 06:34:18;;;;;;;6.85;5.72;;;17.70;92.50;;;;;;2081083;28;20037;-92
2022/06/08 06:35:40;;;;;;;7.78;5.57;;;17.70;92.50;;;;;;2096637;28;20036;-92
2022/06/08 06:37:00;;;;;;;7.20;5.88;;;17.70;92.50;;;;;;2090762;28;20037;-92
2022/06/08 06:38:20;;;;;;;7.03;5.17;;;17.70;92.50;;;;;;2090862;28;20029;-93
2022/06/08 06:39:39;;;;;;;7.47;5.75;;;17.70;92.50;;;;;;2090823;28;20358;-91
2022/06/08 06:40:58;;;;;;;7.25;5.72;;;17.80;92.50;;;;;;2082770;28;20037;-92
2022/06/08 06:42:21;;;;;;;6.70;5.35;;;17.80;92.40;;;;;;2088020;28;20041;-92
2022/06/08 06:43:42;;;;;;;7.72;5.32;;;17.80;92.40;;;;;;2088277;28;20029;-92
2022/06/08 06:45:02;;;;;;;6.50;4.68;;;17.90;92.40;;;;;;2092496;28;20037;-92
2022/06/08 06:46:21;;;;;;;7.60;4.97;;;17.90;92.40;;;;;;2079550;28;20057;-92
2022/06/08 06:47:41;;;;;;;6.53;4.75;;;17.90;92.40;;;;;;2083362;28;20029;-92
2022/06/08 06:49:01;;;;;;;6.70;5.23;;;18.00;92.30;;;;;;2078439;28;20069;-92
2022/06/08 06:50:25;;;;;;;6.10;5.03;;;17.90;92.30;;;;;;2086565;28;20266;-94
2022/06/08 06:51:44;;;;;;;6.68;4.68;;;17.90;92.30;;;;;;2080646;28;20499;-92
2022/06/08 06:53:04;;;;;;;5.72;4.50;;;17.90;92.30;;;;;;2072860;28;20073;-92
2022/06/08 06:54:24;;;;;;;5.93;4.43;;;18.00;92.40;;;;;;2091368;28;20032;-92
2022/06/08 06:55:43;;;;;;;5.60;4.43;;;18.00;92.40;;;;;;2093453;28;20028;-91
2022/06/08 06:57:02;;;;;;;6.13;4.47;;;18.00;92.30;;;;;;2090040;28;20439;-92
2022/06/08 06:58:22;;;;;;;7.27;4.53;;;18.00;92.30;;;;;;2100666;28;20024;-91
2022/06/08 06:59:42;;;;;;;6.35;4.60;;;18.00;92.30;;;;;;2091328;28;20275;-91
2022/06/08 07:01:03;;;;;;;5.57;4.32;;;18.10;92.30;;;;;;2080632;28;20037;-93
2022/06/08 07:02:22;;;;;;;4.70;3.45;;;18.10;92.20;;;;;;2082196;28;20033;-91
2022/06/08 07:03:43;;;;;;;5.30;3.60;;;18.10;92.20;;;;;;2084871;28;20040;-92
2022/06/08 07:05:02;;;;;;;4.80;3.50;;;18.10;92.10;;;;;;2090924;28;20025;-92
2022/06/08 07:06:22;;;;;;;5.72;3.72;;;18.10;92.10;;;;;;2077209;28;20034;-92
2022/06/08 07:07:41;;;;;;;4.80;3.40;;;18.10;92.10;;;;;;2084265;28;20487;-91
2022/06/08 07:09:00;;;;;;;5.50;3.92;;;18.10;92.00;;;;;;2077608;28;20124;-92
2022/06/08 07:10:20;;;;;;;5.18;3.53;;;18.20;92.00;;;;;;2091615;28;20021;-94
2022/06/08 07:11:42;;;;;;;6.03;3.08;;;18.10;91.90;;;;;;2079861;28;20443;-93
2022/06/08 07:13:01;;;;;;;4.97;3.03;;;18.20;91.90;;;;;;2081865;28;20064;-93
2022/06/08 07:14:21;;;;;;;4.50;2.92;;;18.20;91.90;;;;;;2071937;28;20034;-94
2022/06/08 07:15:40;;;;;;;4.80;3.15;;;18.30;91.90;;;;;;2074020;28;20112;-93
2022/06/08 07:16:59;;;;;;;4.50;2.97;;;18.30;91.80;;;;;;2091493;28;20033;-92
2022/06/08 07:18:18;;;;;;;3.80;2.67;;;18.30;91.80;;;;;;2091483;28;20060;-93
2022/06/08 07:19:38;;;;;;;4.90;2.92;;;18.30;91.70;;;;;;2082670;28;20037;-93
2022/06/08 07:20:57;;;;;;;4.93;3.20;;;18.30;91.70;;;;;;2083232;28;20021;-92
2022/06/08 07:22:17;;;;;;;5.45;3.10;;;18.30;91.60;;;;;;2086653;28;20044;-94
2022/06/08 07:23:37;;;;;;;4.22;2.97;;;18.40;91.60;;;;;;2088103;28;20040;-92
2022/06/08 07:24:56;;;;;;;3.80;2.72;;;18.30;91.60;;;;;;2087104;28;20033;-93
2022/06/08 07:26:17;;;;;;;4.75;3.00;;;18.30;91.60;;;;;;2090720;28;20028;-93
2022/06/08 07:27:37;;;;;;;4.00;2.88;;;18.30;91.90;;;;;;2083842;28;20033;-94
2022/06/08 07:28:56;;;;;;;4.22;2.92;;;18.30;91.60;;;;;;2086207;28;20044;-94
2022/06/08 07:30:20;;;;;;;3.92;2.88;;;18.30;91.60;;;;;;2094304;28;20060;-94
2022/06/08 07:31:40;;;;;;;4.20;3.03;;;18.30;91.60;;;;;;2096383;28;20033;-94
2022/06/08 07:33:06;;;;;;;3.92;2.65;;;18.30;91.70;;;;;;2096017;28;20029;-95
2022/06/08 07:34:26;;;;;;;4.35;3.05;;;18.30;91.70;;;;;;2102728;28;20119;-94
2022/06/08 07:35:46;;;;;;;3.83;2.72;;;18.40;91.60;;;;;;2096834;28;20462;-94
2022/06/08 07:37:06;;;;;;;4.95;3.17;;;18.40;91.60;;;;;;2103564;28;20044;-92